Time;durP1;ratioP1;P1;durP2;ratioP2;P2;SDS_P1;SDS_P2;PMS_P1;PMS_P2;Temp;Humidity;BMP_temperature;BMP_pressure;BME280_temperature;BME280_humidity;BME280_pressure;Samples;Min_cycle;Max_cycle;Signal;HPM_P1;HPM_P2
2022/07/26 00:00:54;;;;;;;0.10;0.10;;;;;;;17.39;83.55;101237.97;4943123;29;20035;-68
2022/07/26 00:03:19;;;;;;;0.00;0.00;;;;;;;17.37;82.88;101223.69;4942796;28;20065;-68
2022/07/26 00:05:45;;;;;;;0.00;0.00;;;;;;;17.53;83.06;101239.28;4941265;28;20118;-68
2022/07/26 00:08:10;;;;;;;0.00;0.00;;;;;;;17.56;82.89;101241.69;4936435;28;20287;-68
2022/07/26 00:10:38;;;;;;;0.10;0.10;;;;;;;17.50;83.05;101242.28;4940144;28;20035;-68
2022/07/26 00:13:03;;;;;;;0.10;0.10;;;;;;;17.52;83.43;101243.84;4939361;28;20035;-68
2022/07/26 00:15:29;;;;;;;0.00;0.00;;;;;;;17.53;83.59;101237.41;4948627;29;20037;-68
2022/07/26 00:17:54;;;;;;;0.10;0.10;;;;;;;17.52;83.61;101245.72;4937056;28;20028;-68
2022/07/26 00:20:19;;;;;;;0.10;0.10;;;;;;;17.69;82.70;101241.28;4939252;28;20035;-68
2022/07/26 00:22:45;;;;;;;0.00;0.00;;;;;;;17.74;82.59;101246.22;4944375;28;20047;-68
2022/07/26 00:25:10;;;;;;;0.00;0.00;;;;;;;17.71;83.10;101244.69;4939967;28;20036;-69
2022/07/26 00:27:36;;;;;;;0.00;0.00;;;;;;;17.81;82.64;101248.16;4942801;28;20074;-68
2022/07/26 00:30:03;;;;;;;0.03;0.03;;;;;;;17.89;81.99;101250.09;4936702;28;20039;-68
2022/07/26 00:32:28;;;;;;;0.08;0.08;;;;;;;17.91;81.84;101248.06;4937425;28;20147;-68
2022/07/26 00:34:54;;;;;;;0.00;0.00;;;;;;;17.90;82.29;101242.81;4951088;28;20530;-68
2022/07/26 00:37:19;;;;;;;0.08;0.08;;;;;;;17.86;82.45;101257.69;4940280;28;20443;-68
2022/07/26 00:39:44;;;;;;;0.00;0.00;;;;;;;17.93;82.37;101250.63;4940923;28;20478;-68
2022/07/26 00:42:10;;;;;;;0.10;0.10;;;;;;;17.86;82.72;101246.84;4937943;28;20037;-69
2022/07/26 00:44:40;;;;;;;0.00;0.00;;;;;;;17.81;82.86;101253.59;4945847;28;20034;-68
2022/07/26 00:47:05;;;;;;;0.00;0.00;;;;;;;17.76;82.60;101238.78;4941571;28;20086;-69
2022/07/26 00:49:31;;;;;;;0.20;0.20;;;;;;;17.88;82.82;101258.41;4934794;28;20035;-68
2022/07/26 00:51:56;;;;;;;0.10;0.10;;;;;;;17.79;82.20;101238.47;4940281;28;20475;-69
2022/07/26 00:54:22;;;;;;;0.10;0.10;;;;;;;17.84;82.65;101252.44;4924983;29;20535;-68
2022/07/26 00:56:47;;;;;;;0.10;0.10;;;;;;;17.67;83.64;101249.56;4938481;28;20328;-68
2022/07/26 00:59:12;;;;;;;0.10;0.10;;;;;;;17.67;83.94;101249.56;4937122;28;20154;-69
2022/07/26 01:01:38;;;;;;;0.10;0.10;;;;;;;17.67;83.64;101246.00;4949376;28;20114;-69
2022/07/26 01:04:03;;;;;;;0.10;0.10;;;;;;;17.90;82.72;101250.94;4937665;28;20053;-68
2022/07/26 01:06:28;;;;;;;0.00;0.00;;;;;;;17.91;82.95;101252.66;4939390;28;20026;-69
2022/07/26 01:08:54;;;;;;;0.10;0.10;;;;;;;17.92;82.65;101254.38;4940758;28;20031;-68
2022/07/26 01:11:19;;;;;;;0.10;0.10;;;;;;;17.82;83.55;101254.47;4934547;28;20086;-68
2022/07/26 01:13:46;;;;;;;0.00;0.00;;;;;;;17.79;84.05;101257.50;4937109;28;20395;-68
2022/07/26 01:16:12;;;;;;;0.03;0.03;;;;;;;17.80;84.00;101249.16;4940792;28;20085;-68
2022/07/26 01:18:37;;;;;;;0.13;0.13;;;;;;;17.72;84.67;101254.56;4936566;28;20038;-68
2022/07/26 01:21:03;;;;;;;0.10;0.10;;;;;;;17.72;84.82;101253.69;4937602;28;20031;-68
2022/07/26 01:23:30;;;;;;;0.10;0.10;;;;;;;17.78;83.91;101240.31;4941613;28;20114;-69
2022/07/26 01:25:55;;;;;;;0.00;0.00;;;;;;;18.03;83.21;101250.56;4937476;28;20338;-68
2022/07/26 01:28:20;;;;;;;0.00;0.00;;;;;;;17.85;83.94;101246.00;4942971;28;20091;-68
2022/07/26 01:30:47;;;;;;;0.05;0.05;;;;;;;17.94;83.55;101252.34;4937602;28;20027;-68
2022/07/26 01:33:12;;;;;;;0.10;0.10;;;;;;;18.05;83.52;101243.94;4937843;29;20042;-68
2022/07/26 01:35:38;;;;;;;0.10;0.10;;;;;;;18.05;82.91;101243.13;4937561;28;20027;-68
2022/07/26 01:38:03;;;;;;;0.05;0.05;;;;;;;18.09;82.81;101245.34;4938440;28;20114;-68
2022/07/26 01:40:28;;;;;;;0.10;0.10;;;;;;;18.02;83.53;101241.56;4940318;28;20109;-69
2022/07/26 01:42:54;;;;;;;0.10;0.10;;;;;;;18.05;82.80;101246.66;4937754;28;20531;-68
2022/07/26 01:45:19;;;;;;;0.00;0.00;;;;;;;18.13;83.02;101252.16;4937624;28;20502;-68
2022/07/26 01:47:48;;;;;;;0.10;0.10;;;;;;;18.16;82.85;101250.16;4938583;28;20427;-69
2022/07/26 01:50:15;;;;;;;0.00;0.00;;;;;;;18.17;82.51;101255.41;4942039;28;20081;-70
2022/07/26 01:52:40;;;;;;;0.05;0.05;;;;;;;18.17;82.61;101255.41;4933227;29;20043;-68
2022/07/26 01:55:06;;;;;;;0.10;0.10;;;;;;;18.20;83.07;101257.81;4934225;29;20031;-68
2022/07/26 01:57:31;;;;;;;0.10;0.10;;;;;;;18.13;83.48;101262.19;4944732;28;20480;-68
2022/07/26 01:59:56;;;;;;;0.10;0.10;;;;;;;18.05;85.13;101264.84;4942746;28;20031;-68
2022/07/26 02:02:22;;;;;;;0.10;0.10;;;;;;;17.90;86.72;101264.53;4948082;28;20077;-68
2022/07/26 02:05:00;;;;;;;0.10;0.10;;;;;;;17.95;86.24;101267.63;4947786;28;20035;-71
2022/07/26 02:07:31;;;;;;;0.10;0.10;;;;;;;17.82;87.32;101271.59;4942225;28;20035;-69
2022/07/26 02:09:57;;;;;;;0.10;0.10;;;;;;;17.69;86.73;101244.84;4940224;29;20114;-68
2022/07/26 02:12:22;;;;;;;0.13;0.13;;;;;;;17.79;88.90;101269.19;4938417;28;20068;-69
2022/07/26 02:14:48;;;;;;;0.00;0.00;;;;;;;17.76;89.46;101271.38;4947360;28;20031;-69
2022/07/26 02:17:13;;;;;;;0.10;0.10;;;;;;;17.63;89.38;101250.88;4943189;29;20309;-69
2022/07/26 02:19:39;;;;;;;0.10;0.10;;;;;;;17.79;90.05;101273.78;4931483;28;20050;-69
2022/07/26 02:22:04;;;;;;;0.10;0.10;;;;;;;17.73;88.37;101253.53;4938756;28;20032;-69
2022/07/26 02:24:30;;;;;;;0.10;0.10;;;;;;;17.75;89.50;101254.22;4942013;28;20069;-69
2022/07/26 02:26:56;;;;;;;0.10;0.10;;;;;;;17.84;88.47;101266.84;4946610;28;20027;-69
2022/07/26 02:29:21;;;;;;;0.10;0.10;;;;;;;17.78;88.65;101262.03;4948005;28;20117;-69
2022/07/26 02:31:46;;;;;;;0.10;0.10;;;;;;;17.82;90.03;101270.75;4939749;28;20390;-69
2022/07/26 02:34:12;;;;;;;0.10;0.10;;;;;;;17.67;92.56;101270.44;4943462;28;20059;-69
2022/07/26 02:36:37;;;;;;;0.10;0.10;;;;;;;17.60;92.94;101277.50;4942505;28;20096;-68
2022/07/26 02:39:03;;;;;;;0.10;0.10;;;;;;;17.54;93.82;101262.69;4939690;28;20031;-69
2022/07/26 02:41:28;;;;;;;0.10;0.10;;;;;;;17.50;94.67;101277.59;4938845;29;20442;-68
2022/07/26 02:43:54;;;;;;;0.10;0.10;;;;;;;17.38;95.14;101264.22;4940671;29;20251;-68
2022/07/26 02:46:19;;;;;;;0.08;0.08;;;;;;;17.26;95.54;101260.03;4928445;28;20046;-68
2022/07/26 02:48:45;;;;;;;0.10;0.10;;;;;;;17.18;97.46;101259.94;4939582;28;20483;-68
2022/07/26 02:51:10;;;;;;;0.10;0.10;;;;;;;17.26;97.23;101281.75;4938406;28;20132;-69
2022/07/26 02:53:35;;;;;;;0.00;0.00;;;;;;;17.29;97.00;101284.16;4940688;28;20038;-69
2022/07/26 02:56:00;;;;;;;0.10;0.10;;;;;;;17.17;97.26;101279.94;4938563;28;20040;-68
2022/07/26 02:58:26;;;;;;;0.08;0.08;;;;;;;17.13;97.89;101278.53;4942681;28;20067;-69
2022/07/26 03:00:52;;;;;;;0.10;0.10;;;;;;;17.11;98.67;101288.69;4938477;28;20142;-68
2022/07/26 03:03:17;;;;;;;0.10;0.10;;;;;;;17.03;98.82;101290.31;4937722;28;20050;-68
2022/07/26 03:05:43;;;;;;;0.10;0.10;;;;;;;16.99;99.19;101285.31;4948299;29;20031;-68
2022/07/26 03:08:08;;;;;;;0.10;0.10;;;;;;;16.87;98.36;101268.38;4940563;28;20423;-69
2022/07/26 03:10:34;;;;;;;0.00;0.00;;;;;;;16.85;98.97;101294.78;4940627;29;20091;-68
2022/07/26 03:12:59;;;;;;;0.15;0.15;;;;;;;16.86;98.54;101296.50;4942825;28;20035;-68
2022/07/26 03:15:24;;;;;;;0.10;0.10;;;;;;;16.74;99.07;101307.53;4937212;28;20568;-68
2022/07/26 03:17:50;;;;;;;0.10;0.10;;;;;;;16.67;99.37;101308.28;4946657;28;20046;-68
2022/07/26 03:20:15;;;;;;;0.00;0.00;;;;;;;16.55;100.00;101313.03;4939319;28;20114;-68
2022/07/26 03:22:41;;;;;;;0.30;0.30;;;;;;;16.34;100.00;101304.09;4922841;29;20027;-68
2022/07/26 03:25:06;;;;;;;0.10;0.10;;;;;;;16.33;100.00;101313.22;4948223;29;20027;-68
2022/07/26 03:27:32;;;;;;;0.10;0.10;;;;;;;16.32;100.00;101314.22;4940531;28;20034;-68
2022/07/26 03:29:57;;;;;;;0.00;0.00;;;;;;;16.15;100.00;101306.84;4942116;28;20701;-68
2022/07/26 03:32:22;;;;;;;0.10;0.10;;;;;;;16.20;100.00;101309.97;4937408;28;20177;-68
2022/07/26 03:34:48;;;;;;;0.10;0.10;;;;;;;16.05;100.00;101293.31;4939425;28;20034;-68
2022/07/26 03:37:13;;;;;;;0.03;0.03;;;;;;;16.10;100.00;101301.84;4940849;28;20371;-68
2022/07/26 03:39:39;;;;;;;0.10;0.10;;;;;;;16.12;100.00;101313.41;4940731;28;20042;-68
2022/07/26 03:42:05;;;;;;;0.10;0.10;;;;;;;16.00;100.00;101301.03;4935818;28;20495;-68
2022/07/26 03:44:30;;;;;;;0.10;0.10;;;;;;;16.01;100.00;101309.00;4937678;28;20038;-68
2022/07/26 03:46:56;;;;;;;0.10;0.10;;;;;;;16.07;100.00;101312.13;4943435;28;20031;-68
2022/07/26 03:49:21;;;;;;;0.20;0.20;;;;;;;16.01;100.00;101321.69;4943129;28;20030;-68
2022/07/26 03:51:46;;;;;;;0.20;0.20;;;;;;;16.10;100.00;101326.22;4936065;28;20038;-68
2022/07/26 03:54:12;;;;;;;0.10;0.10;;;;;;;16.06;100.00;101332.09;4941295;28;20058;-68
2022/07/26 03:56:38;;;;;;;0.10;0.10;;;;;;;16.07;100.00;101331.94;4936302;28;20506;-68
2022/07/26 03:59:05;;;;;;;0.10;0.10;;;;;;;16.12;100.00;101331.53;4941224;28;20047;-68
2022/07/26 04:01:31;;;;;;;0.10;0.10;;;;;;;16.13;100.00;101336.78;4942334;28;20054;-68
2022/07/26 04:03:57;;;;;;;0.10;0.10;;;;;;;16.13;100.00;101325.94;4943062;29;20034;-68
2022/07/26 04:06:22;;;;;;;0.10;0.10;;;;;;;16.34;100.00;101335.75;4949485;28;20031;-68
2022/07/26 04:08:48;;;;;;;0.10;0.10;;;;;;;16.28;100.00;101345.31;4949821;28;20035;-68
2022/07/26 04:11:13;;;;;;;0.20;0.20;;;;;;;16.39;100.00;101338.88;4939873;28;20062;-68
2022/07/26 04:13:39;;;;;;;0.10;0.10;;;;;;;16.32;100.00;101343.16;4948701;28;20066;-68
2022/07/26 04:16:05;;;;;;;0.10;0.10;;;;;;;16.37;100.00;101340.03;4949570;28;20126;-68
2022/07/26 04:18:30;;;;;;;0.20;0.20;;;;;;;16.42;100.00;101352.16;4950269;28;20039;-68
2022/07/26 04:20:56;;;;;;;0.00;0.00;;;;;;;16.51;100.00;101347.69;4938775;28;20043;-68
2022/07/26 04:23:21;;;;;;;0.10;0.10;;;;;;;16.60;100.00;101344.13;4948731;28;20556;-68
2022/07/26 04:25:46;;;;;;;0.10;0.10;;;;;;;16.63;100.00;101341.13;4946375;28;20474;-73
2022/07/26 04:28:12;;;;;;;0.10;0.10;;;;;;;16.78;100.00;101351.47;4942199;28;20111;-68
2022/07/26 04:30:38;;;;;;;0.10;0.10;;;;;;;16.84;100.00;101352.72;4943965;28;20050;-68
2022/07/26 04:33:04;;;;;;;0.13;0.13;;;;;;;16.84;100.00;101356.31;4943477;28;20071;-68
2022/07/26 04:35:29;;;;;;;0.10;0.10;;;;;;;16.86;100.00;101357.03;4943754;28;20503;-68
2022/07/26 04:37:55;;;;;;;0.20;0.20;;;;;;;16.94;100.00;101356.28;4948174;28;20775;-68
2022/07/26 04:40:21;;;;;;;0.13;0.13;;;;;;;17.06;100.00;101362.38;4943456;28;20152;-68
2022/07/26 04:42:47;;;;;;;0.10;0.10;;;;;;;16.94;100.00;101364.41;4944193;28;20490;-68
2022/07/26 04:45:13;;;;;;;0.10;0.10;;;;;;;17.05;100.00;101364.25;4943619;28;20091;-68
2022/07/26 04:47:42;;;;;;;0.20;0.20;;;;;;;16.93;100.00;101365.41;4942652;28;20678;-68
2022/07/26 04:50:08;;;;;;;0.00;0.00;;;;;;;16.66;100.00;101334.53;4938744;28;20036;-68
2022/07/26 04:52:33;;;;;;;0.15;0.15;;;;;;;16.74;100.00;101366.31;4943257;28;20070;-68
2022/07/26 04:54:59;;;;;;;0.20;0.20;;;;;;;16.64;100.00;101361.81;4943258;29;20051;-68
2022/07/26 04:57:24;;;;;;;0.10;0.10;;;;;;;16.71;100.00;101367.50;4942484;28;20081;-69
2022/07/26 04:59:49;;;;;;;0.15;0.15;;;;;;;16.78;100.00;101374.03;4943528;29;20480;-70
2022/07/26 05:02:15;;;;;;;0.10;0.10;;;;;;;16.81;100.00;101370.16;4937290;28;20051;-68
2022/07/26 05:04:43;;;;;;;0.10;0.10;;;;;;;16.67;100.00;101354.38;4938997;29;20031;-68
2022/07/26 05:07:08;;;;;;;0.10;0.10;;;;;;;16.72;100.00;101366.50;4941616;28;20138;-69
2022/07/26 05:09:34;;;;;;;0.20;0.20;;;;;;;16.70;100.00;101373.03;4938994;28;20456;-68
2022/07/26 05:11:59;;;;;;;0.20;0.20;;;;;;;16.78;100.00;101376.75;4934075;28;20042;-68
2022/07/26 05:14:24;;;;;;;0.03;0.03;;;;;;;16.85;100.00;101384.28;4942033;28;20058;-69
2022/07/26 05:16:50;;;;;;;0.10;0.10;;;;;;;16.88;100.00;101383.97;4949704;28;20518;-68
2022/07/26 05:19:15;;;;;;;0.10;0.10;;;;;;;16.94;100.00;101383.41;4941893;29;20077;-69
2022/07/26 05:21:40;;;;;;;0.10;0.10;;;;;;;17.02;100.00;101391.69;4943354;28;20503;-69
2022/07/26 05:24:06;;;;;;;0.10;0.10;;;;;;;17.05;100.00;101383.25;4946169;28;20034;-69
2022/07/26 05:26:32;;;;;;;0.13;0.13;;;;;;;17.19;100.00;101391.91;4941334;29;20044;-68
2022/07/26 05:28:57;;;;;;;0.10;0.10;;;;;;;17.33;100.00;101402.28;4944076;28;20023;-68
2022/07/26 05:31:23;;;;;;;0.20;0.20;;;;;;;17.35;100.00;101396.69;4945913;28;20078;-68
2022/07/26 05:33:48;;;;;;;0.10;0.10;;;;;;;17.44;99.96;101395.78;4945535;29;20676;-69
2022/07/26 05:36:14;;;;;;;0.10;0.10;;;;;;;17.44;99.88;101395.78;4948559;29;20593;-68
2022/07/26 05:38:39;;;;;;;0.10;0.10;;;;;;;17.44;99.09;101382.22;4941822;28;20027;-69
2022/07/26 05:41:04;;;;;;;0.00;0.00;;;;;;;17.61;99.16;101396.81;4937548;29;20047;-69
2022/07/26 05:43:30;;;;;;;0.15;0.15;;;;;;;17.68;98.84;101397.06;4949199;28;20030;-68
2022/07/26 05:45:56;;;;;;;0.10;0.10;;;;;;;17.89;97.61;101407.63;4944261;29;20043;-69
2022/07/26 05:48:22;;;;;;;0.10;0.10;;;;;;;17.93;96.81;101405.47;4940773;28;20071;-70
2022/07/26 05:50:47;;;;;;;0.10;0.10;;;;;;;18.05;96.14;101411.56;4938309;28;20057;-69
2022/07/26 05:53:12;;;;;;;0.10;0.10;;;;;;;18.17;95.67;101417.63;4942018;28;20027;-69
2022/07/26 05:55:38;;;;;;;0.10;0.10;;;;;;;18.28;94.85;101409.19;4947339;28;20031;-69
2022/07/26 05:58:03;;;;;;;0.10;0.10;;;;;;;18.33;94.06;101406.03;4935796;29;20047;-69
2022/07/26 06:00:28;;;;;;;0.10;0.10;;;;;;;18.47;93.40;101412.78;4941282;28;20070;-71
2022/07/26 06:02:54;;;;;;;0.10;0.10;;;;;;;18.49;92.40;101417.03;4942326;28;20027;-69
2022/07/26 06:05:19;;;;;;;0.08;0.08;;;;;;;18.54;91.87;101417.41;4947923;28;20398;-70
2022/07/26 06:07:44;;;;;;;0.20;0.20;;;;;;;18.73;91.07;101413.66;4945215;28;20495;-68
2022/07/26 06:10:10;;;;;;;0.10;0.10;;;;;;;18.80;90.76;101418.47;4952379;28;20078;-68
2022/07/26 06:12:35;;;;;;;0.00;0.00;;;;;;;18.79;90.44;101420.31;4943171;28;20031;-68
2022/07/26 06:15:01;;;;;;;0.00;0.00;;;;;;;18.73;89.93;101420.94;4941589;28;20081;-68
2022/07/26 06:17:28;;;;;;;0.05;0.05;;;;;;;18.87;90.63;101428.53;4939327;28;20191;-69
2022/07/26 06:19:57;;;;;;;0.10;0.10;;;;;;;18.98;89.75;101418.41;4941362;28;20038;-68
2022/07/26 06:22:22;;;;;;;0.03;0.03;;;;;;;19.08;89.00;101423.75;4940090;29;20035;-68
2022/07/26 06:24:48;;;;;;;0.10;0.10;;;;;;;19.12;88.74;101417.84;4949850;28;20407;-69
2022/07/26 06:27:13;;;;;;;0.10;0.10;;;;;;;19.23;87.73;101421.25;4940210;29;20369;-68
2022/07/26 06:29:39;;;;;;;0.03;0.03;;;;;;;19.24;87.79;101428.41;4938669;28;20090;-68
2022/07/26 06:32:05;;;;;;;0.13;0.10;;;;;;;19.34;88.04;101426.44;4945088;28;20428;-69
2022/07/26 06:34:30;;;;;;;0.00;0.00;;;;;;;19.51;87.20;101423.78;4946680;29;20126;-69
2022/07/26 06:36:55;;;;;;;0.10;0.10;;;;;;;19.45;85.72;101423.44;4947365;28;20594;-69
2022/07/26 06:39:20;;;;;;;0.00;0.00;;;;;;;19.65;85.40;101431.31;4945091;28;20043;-70
2022/07/26 06:41:46;;;;;;;0.10;0.10;;;;;;;19.78;85.08;101434.41;4941296;29;20059;-69
2022/07/26 06:44:11;;;;;;;0.00;0.00;;;;;;;19.95;83.47;101429.06;4942325;28;20118;-69
2022/07/26 06:46:36;;;;;;;0.00;0.00;;;;;;;20.03;81.00;101428.22;4943779;28;20035;-70
2022/07/26 06:49:02;;;;;;;0.08;0.08;;;;;;;19.96;79.78;101438.06;4945942;28;20031;-69
2022/07/26 06:51:28;;;;;;;0.00;0.00;;;;;;;19.83;80.64;101442.13;4942378;28;20031;-68
2022/07/26 06:53:53;;;;;;;0.10;0.10;;;;;;;20.05;78.34;101442.53;4939076;28;20031;-69
2022/07/26 06:56:18;;;;;;;0.00;0.00;;;;;;;19.97;78.74;101443.38;4947630;29;20040;-68
2022/07/26 06:58:44;;;;;;;0.00;0.00;;;;;;;20.03;78.89;101447.28;4948203;28;20074;-68
2022/07/26 07:01:09;;;;;;;0.00;0.00;;;;;;;19.89;78.85;101438.72;4942009;28;20062;-68
2022/07/26 07:03:35;;;;;;;0.10;0.10;;;;;;;19.86;81.27;101449.97;4948820;28;20287;-68
2022/07/26 07:06:00;;;;;;;0.03;0.00;;;;;;;19.97;80.80;101459.72;4947806;28;20121;-69
2022/07/26 07:08:26;;;;;;;0.05;0.05;;;;;;;20.06;80.65;101460.59;4947421;28;20074;-70
2022/07/26 07:10:52;;;;;;;0.00;0.00;;;;;;;20.30;79.24;101454.31;4937297;28;20111;-69
2022/07/26 07:13:18;;;;;;;0.00;0.00;;;;;;;20.20;77.94;101454.47;4944214;28;20031;-69
2022/07/26 07:15:43;;;;;;;0.00;0.00;;;;;;;20.27;78.09;101453.81;4942184;28;20308;-69
2022/07/26 07:18:09;;;;;;;0.10;0.10;;;;;;;20.25;78.29;101451.25;4942333;28;20040;-69
2022/07/26 07:20:34;;;;;;;0.00;0.00;;;;;;;20.43;77.92;101455.69;4947052;28;20027;-68
2022/07/26 07:23:00;;;;;;;0.10;0.10;;;;;;;20.61;77.08;101452.78;4945440;28;20026;-70
2022/07/26 07:25:25;;;;;;;0.00;0.00;;;;;;;20.85;75.95;101459.28;4949273;28;20256;-68
2022/07/26 07:27:51;;;;;;;0.00;0.00;;;;;;;20.77;74.16;101457.44;4941982;29;20132;-69
2022/07/26 07:30:16;;;;;;;0.00;0.00;;;;;;;20.83;73.67;101443.94;4941920;28;20042;-68
2022/07/26 07:32:42;;;;;;;0.10;0.10;;;;;;;20.76;74.16;101470.19;4944945;29;20023;-68
2022/07/26 07:35:07;;;;;;;0.00;0.00;;;;;;;20.64;75.08;101461.47;4939382;29;20129;-68
2022/07/26 07:37:34;;;;;;;0.03;0.03;;;;;;;20.45;75.17;101445.47;4927831;28;20035;-68
2022/07/26 07:39:59;;;;;;;0.00;0.00;;;;;;;20.50;75.23;101464.91;4947729;28;20042;-68
2022/07/26 07:42:25;;;;;;;0.00;0.00;;;;;;;20.65;73.89;101465.91;4947409;28;20035;-67
2022/07/26 07:44:50;;;;;;;0.00;0.00;;;;;;;20.58;74.76;101442.22;4944313;28;20031;-68
2022/07/26 07:47:16;;;;;;;0.00;0.00;;;;;;;20.68;76.07;101461.97;4939757;28;20035;-68
2022/07/26 07:49:41;;;;;;;0.00;0.00;;;;;;;20.52;74.96;101438.31;4936242;28;20502;-68
2022/07/26 07:52:07;;;;;;;0.00;0.00;;;;;;;20.33;74.71;101453.97;4940523;28;20035;-68
2022/07/26 07:54:32;;;;;;;0.00;0.00;;;;;;;20.17;74.18;101443.06;4943267;29;20397;-68
2022/07/26 07:56:57;;;;;;;0.00;0.00;;;;;;;20.23;74.51;101465.03;4946366;28;20034;-68
2022/07/26 07:59:22;;;;;;;0.00;0.00;;;;;;;20.07;74.72;101460.41;4944481;28;20762;-67
2022/07/26 08:01:48;;;;;;;0.00;0.00;;;;;;;19.86;76.80;101477.22;4924984;29;20109;-67
2022/07/26 08:04:14;;;;;;;0.13;0.10;;;;;;;19.66;80.06;101500.25;4945196;28;20102;-67
2022/07/26 08:06:40;;;;;;;0.00;0.00;;;;;;;18.90;84.90;101487.22;4940797;29;20043;-68
2022/07/26 08:09:05;;;;;;;0.00;0.00;;;;;;;18.70;88.05;101519.16;4932730;28;20035;-68
2022/07/26 08:11:30;;;;;;;0.00;0.00;;;;;;;18.48;90.38;101528.69;4931075;28;20043;-67
2022/07/26 08:13:56;;;;;;;0.00;0.00;;;;;;;18.27;93.09;101530.69;4935591;29;20027;-68
2022/07/26 08:16:21;;;;;;;0.00;0.00;;;;;;;18.18;95.64;101533.47;4932153;28;20059;-68
2022/07/26 08:18:46;;;;;;;0.00;0.00;;;;;;;18.08;94.58;101536.25;4934236;29;20220;-68
2022/07/26 08:21:12;;;;;;;0.00;0.00;;;;;;;18.07;95.58;101535.38;4931658;28;20035;-68
2022/07/26 08:23:37;;;;;;;0.00;0.00;;;;;;;18.13;95.63;101542.09;4938624;28;20558;-68
2022/07/26 08:26:02;;;;;;;0.00;0.00;;;;;;;18.13;96.08;101537.50;4938157;29;20496;-68
2022/07/26 08:28:28;;;;;;;0.00;0.00;;;;;;;18.31;97.23;101560.28;4942170;28;20067;-68
2022/07/26 08:30:53;;;;;;;0.00;0.00;;;;;;;18.37;98.39;101555.06;4942340;28;20042;-68
2022/07/26 08:33:18;;;;;;;0.00;0.00;;;;;;;18.22;97.32;101527.56;4936959;28;20034;-68
2022/07/26 08:35:44;;;;;;;0.00;0.00;;;;;;;18.46;97.13;101553.28;4939021;29;20469;-68
2022/07/26 08:38:09;;;;;;;0.00;0.00;;;;;;;18.59;97.18;101561.06;4937927;28;20031;-68
2022/07/26 08:40:34;;;;;;;0.00;0.00;;;;;;;18.57;95.55;101566.66;4945098;29;20151;-68
2022/07/26 08:43:01;;;;;;;0.00;0.00;;;;;;;18.57;94.47;101547.63;4944283;28;20027;-68
2022/07/26 08:45:28;;;;;;;0.00;0.00;;;;;;;18.77;96.33;101571.09;4941901;28;20672;-68
2022/07/26 08:47:54;;;;;;;0.00;0.00;;;;;;;18.67;93.26;101555.72;4944605;28;20041;-68
2022/07/26 08:50:19;;;;;;;0.00;0.00;;;;;;;18.67;94.13;101539.38;4942672;29;20039;-68
2022/07/26 08:52:45;;;;;;;0.00;0.00;;;;;;;18.79;92.43;101566.38;4939764;28;20124;-68
2022/07/26 08:55:15;;;;;;;0.00;0.00;;;;;;;18.86;92.77;101570.16;4938803;28;20032;-67
2022/07/26 08:57:40;;;;;;;0.00;0.00;;;;;;;18.89;92.69;101568.00;4945530;29;20118;-68
2022/07/26 09:00:17;;;;;;;0.00;0.00;;;;;;;18.98;92.25;101571.66;4946053;29;20106;-68
2022/07/26 09:02:43;;;;;;;0.10;0.10;;;;;;;19.09;91.59;101561.53;4942492;29;20455;-68
2022/07/26 09:05:08;;;;;;;0.00;0.00;;;;;;;19.17;91.17;101557.03;4938430;28;20027;-67
2022/07/26 09:07:34;;;;;;;0.00;0.00;;;;;;;19.31;92.48;101560.16;4923464;28;20055;-68
2022/07/26 09:10:03;;;;;;;0.00;0.00;;;;;;;19.51;90.37;101576.28;4933653;28;20395;-68
2022/07/26 09:12:30;;;;;;;0.00;0.00;;;;;;;19.59;89.85;101582.66;4936586;28;20030;-69
2022/07/26 09:14:56;;;;;;;0.00;0.00;;;;;;;19.66;88.52;101582.84;4935987;28;20490;-68
2022/07/26 09:17:23;;;;;;;0.00;0.00;;;;;;;19.75;87.87;101584.59;4950059;28;20023;-72
2022/07/26 09:20:09;;;;;;;0.00;0.00;;;;;;;19.87;87.94;101589.75;4944679;28;20445;-67
2022/07/26 09:22:37;;;;;;;0.00;0.00;;;;;;;19.96;86.18;101590.69;4936034;28;20453;-68
2022/07/26 09:25:02;;;;;;;0.00;0.00;;;;;;;20.04;85.19;101593.47;4943332;28;20034;-68
2022/07/26 09:27:37;;;;;;;0.08;0.08;;;;;;;20.25;85.21;101600.34;4939051;28;20031;-68
2022/07/26 09:30:07;;;;;;;0.00;0.00;;;;;;;20.30;83.88;101600.72;4928979;28;20598;-68
2022/07/26 09:32:32;;;;;;;0.00;0.00;;;;;;;20.36;83.77;101602.78;4936195;29;20031;-68
2022/07/26 09:35:14;;;;;;;0.00;0.00;;;;;;;20.37;82.08;101604.50;4940761;28;20042;-68
2022/07/26 09:37:45;;;;;;;0.00;0.00;;;;;;;20.63;80.12;101608.97;4937229;29;20039;-67
2022/07/26 09:40:12;;;;;;;0.00;0.00;;;;;;;20.73;78.50;101615.13;4934402;29;20119;-68
2022/07/26 09:42:52;;;;;;;0.00;0.00;;;;;;;20.78;77.52;101601.88;4944174;28;20015;-67
2022/07/26 09:45:18;;;;;;;0.00;0.00;;;;;;;20.82;78.40;101616.88;4944560;28;20336;-67
2022/07/26 09:47:43;;;;;;;0.00;0.00;;;;;;;20.88;78.63;101620.81;4944353;28;20050;-68
2022/07/26 09:50:17;;;;;;;0.00;0.00;;;;;;;20.91;78.46;101623.19;4938351;28;20032;-68
2022/07/26 09:53:06;;;;;;;0.00;0.00;;;;;;;20.96;76.83;101626.28;4935808;29;20023;-68
2022/07/26 09:55:32;;;;;;;0.00;0.00;;;;;;;21.11;77.26;101620.13;4943652;29;20043;-68
2022/07/26 09:57:58;;;;;;;0.00;0.00;;;;;;;20.93;77.04;101621.16;4936647;28;20039;-68
2022/07/26 10:00:24;;;;;;;0.00;0.00;;;;;;;20.89;77.45;101624.41;4943294;28;20039;-68
2022/07/26 10:02:51;;;;;;;0.00;0.00;;;;;;;21.01;77.24;101633.94;4940058;28;20050;-68
2022/07/26 10:05:17;;;;;;;0.00;0.00;;;;;;;20.76;77.06;101631.19;4941521;28;20027;-68
2022/07/26 10:07:42;;;;;;;0.00;0.00;;;;;;;20.74;78.12;101629.63;4933623;29;20625;-68
2022/07/26 10:10:10;;;;;;;0.00;0.00;;;;;;;20.94;76.90;101638.38;4936250;29;20125;-68
2022/07/26 10:12:35;;;;;;;0.00;0.00;;;;;;;20.96;76.57;101636.31;4931844;28;20106;-67
2022/07/26 10:15:01;;;;;;;0.00;0.00;;;;;;;20.90;75.30;101623.38;4939023;28;20404;-68
2022/07/26 10:17:29;;;;;;;0.00;0.00;;;;;;;21.09;74.71;101633.09;4930146;28;20062;-68
2022/07/26 10:20:00;;;;;;;0.00;0.00;;;;;;;21.19;73.34;101632.94;4928672;29;20463;-67
2022/07/26 10:22:29;;;;;;;0.00;0.00;;;;;;;21.29;72.90;101639.06;4928515;29;20032;-68
2022/07/26 10:24:56;;;;;;;0.00;0.00;;;;;;;21.38;73.70;101640.78;4943163;28;20539;-68
2022/07/26 10:27:40;;;;;;;0.00;0.00;;;;;;;21.12;74.36;101640.94;4949488;29;20034;-68
2022/07/26 10:30:15;;;;;;;0.00;0.00;;;;;;;21.13;75.42;101645.38;4947673;29;20406;-68
2022/07/26 10:32:55;;;;;;;0.00;0.00;;;;;;;21.18;75.45;101632.09;4942778;28;20166;-68
2022/07/26 10:35:32;;;;;;;0.00;0.00;;;;;;;21.74;72.96;101639.56;4943790;28;20031;-68
2022/07/26 10:38:00;;;;;;;0.00;0.00;;;;;;;21.87;73.79;101649.97;4934400;29;20348;-68
2022/07/26 10:40:29;;;;;;;0.00;0.00;;;;;;;22.31;72.48;101616.63;4932661;28;20027;-68
2022/07/26 10:43:05;;;;;;;0.00;0.00;;;;;;;22.75;72.29;101645.31;4929019;28;20118;-68
2022/07/26 10:45:31;;;;;;;0.00;0.00;;;;;;;23.09;68.71;101656.03;4933062;28;20038;-68
2022/07/26 10:48:13;;;;;;;0.00;0.00;;;;;;;23.17;69.25;101648.63;4938548;28;20031;-68
2022/07/26 10:50:41;;;;;;;0.00;0.00;;;;;;;23.27;67.95;101634.69;4934305;29;20035;-67
2022/07/26 10:53:08;;;;;;;0.00;0.00;;;;;;;23.23;69.02;101640.72;4942614;28;20042;-68
2022/07/26 10:55:47;;;;;;;0.00;0.00;;;;;;;22.68;67.71;101666.22;4933839;29;20117;-68
2022/07/26 10:58:14;;;;;;;0.00;0.00;;;;;;;22.00;69.49;101665.81;4945628;28;20032;-68
2022/07/26 11:00:39;;;;;;;0.00;0.00;;;;;;;21.43;71.28;101660.25;4943499;28;20403;-68
2022/07/26 11:03:04;;;;;;;0.00;0.00;;;;;;;21.06;73.56;101660.72;4941216;29;20087;-68
2022/07/26 11:05:33;;;;;;;0.00;0.00;;;;;;;20.58;75.63;101663.19;4931149;29;20194;-68
2022/07/26 11:08:08;;;;;;;0.00;0.00;;;;;;;20.28;78.56;101671.75;4929567;29;20511;-69
2022/07/26 11:10:38;;;;;;;0.00;0.00;;;;;;;20.00;79.66;101668.38;4937486;28;20098;-68
2022/07/26 11:13:17;;;;;;;0.00;0.00;;;;;;;19.84;80.88;101671.81;4937525;29;20077;-68
2022/07/26 11:15:59;;;;;;;0.00;0.00;;;;;;;19.66;79.75;101666.41;4940401;29;20078;-68
2022/07/26 11:18:31;;;;;;;0.00;0.00;;;;;;;19.52;81.76;101659.69;4940610;29;20038;-69
2022/07/26 11:21:08;;;;;;;0.00;0.00;;;;;;;19.54;84.17;101671.28;4931623;29;20028;-69